Time;durP1;ratioP1;P1;durP2;ratioP2;P2;SDS_P1;SDS_P2;PMS_P1;PMS_P2;Temp;Humidity;BMP_temperature;BMP_pressure;BME280_temperature;BME280_humidity;BME280_pressure;Samples;Min_cycle;Max_cycle;Signal;HPM_P1;HPM_P2
2022/06/09 00:02:12;;;;;;;43.75;17.05;;;14.50;99.90;;;;;;5014640;28;20518;-92
2022/06/09 00:08:21;;;;;;;50.70;17.63;;;14.60;99.90;;;;;;4988891;28;20497;-92
2022/06/09 00:14:12;;;;;;;43.28;17.13;;;14.50;99.90;;;;;;4973101;28;20132;-92
2022/06/09 00:17:16;;;;;;;59.88;18.13;;;14.50;99.90;;;;;;4996339;28;20037;-92
2022/06/09 00:20:24;;;;;;;;;;;;;;;;;;;;;
2022/06/09 00:23:23;;;;;;;54.65;16.45;;;14.50;99.90;;;;;;5024381;28;20521;-92
2022/06/09 00:26:09;;;;;;;49.08;15.63;;;14.50;99.90;;;;;;4993199;28;20053;-91
2022/06/09 00:29:09;;;;;;;49.10;15.30;;;14.50;99.90;;;;;;5000902;28;20045;-92
2022/06/09 00:31:38;;;;;;;45.97;16.33;;;14.50;99.90;;;;;;4999752;28;20053;-92
2022/06/09 00:34:21;;;;;;;54.40;16.00;;;14.50;99.90;;;;;;4999370;28;20052;-92
2022/06/09 00:37:18;;;;;;;60.38;18.48;;;14.50;99.90;;;;;;5000882;28;20057;-92
2022/06/09 00:39:49;;;;;;;64.38;17.23;;;14.50;99.90;;;;;;5000080;28;20048;-91
2022/06/09 00:42:49;;;;;;;56.55;18.58;;;14.60;99.90;;;;;;5019074;28;20051;-91
2022/06/09 00:45:50;;;;;;;59.50;19.30;;;14.50;99.90;;;;;;5034277;28;20049;-91
2022/06/09 00:49:04;;;;;;;69.70;18.48;;;14.50;99.90;;;;;;5018947;28;20088;-91
2022/06/09 00:52:03;;;;;;;48.67;17.90;;;14.50;99.90;;;;;;5019884;28;20091;-91
2022/06/09 00:54:42;;;;;;;59.45;17.83;;;14.40;99.90;;;;;;5005628;28;20085;-93
2022/06/09 00:57:42;;;;;;;79.80;20.27;;;14.50;99.90;;;;;;5013086;28;20069;-90
2022/06/09 01:00:50;;;;;;;74.18;18.88;;;14.50;99.90;;;;;;5015105;28;20060;-91
2022/06/09 01:04:03;;;;;;;65.05;18.88;;;14.50;99.90;;;;;;4993860;28;20072;-92
2022/06/09 01:07:15;;;;;;;60.35;18.05;;;14.50;99.90;;;;;;5005018;28;20053;-92
2022/06/09 01:10:20;;;;;;;;;;;;;;;;;;;;;
2022/06/09 01:13:11;;;;;;;59.50;18.77;;;14.50;99.90;;;;;;5032307;28;20048;-91
2022/06/09 01:16:02;;;;;;;54.63;17.35;;;14.50;99.90;;;;;;5015203;28;20111;-91
2022/06/09 01:22:48;;;;;;;62.42;18.98;;;14.50;99.90;;;;;;4998748;28;20567;-92
2022/06/09 01:29:39;;;;;;;61.22;19.83;;;14.50;99.90;;;;;;4956631;28;20054;-93
2022/06/09 01:32:18;;;;;;;53.95;19.70;;;14.50;99.90;;;;;;5011395;28;20103;-91
2022/06/09 01:35:34;;;;;;;66.28;20.20;;;14.40;99.90;;;;;;5015253;28;20042;-92
2022/06/09 01:41:03;;;;;;;67.32;19.98;;;14.40;99.90;;;;;;4978144;28;20527;-92
2022/06/09 01:43:46;;;;;;;65.80;21.33;;;14.40;99.90;;;;;;5014688;28;20045;-92
2022/06/09 01:46:59;;;;;;;58.33;20.13;;;14.40;99.90;;;;;;5015544;28;20045;-92
2022/06/09 01:49:58;;;;;;;58.85;20.58;;;14.40;99.90;;;;;;5004347;28;20045;-92
2022/06/09 01:52:44;;;;;;;64.07;20.00;;;14.40;99.90;;;;;;4968587;28;20068;-92
2022/06/09 01:55:25;;;;;;;58.90;21.02;;;14.40;99.90;;;;;;5013986;28;20065;-91
2022/06/09 01:58:16;;;;;;;60.70;21.23;;;14.50;99.90;;;;;;5018171;28;20523;-91
2022/06/09 02:04:22;;;;;;;60.22;24.10;;;14.40;99.90;;;;;;5033917;28;20049;-91
2022/06/09 02:07:16;;;;;;;63.95;20.65;;;14.40;99.90;;;;;;4986496;28;20056;-91
2022/06/09 02:10:16;;;;;;;65.38;21.42;;;14.30;99.90;;;;;;5015831;28;20049;-92
2022/06/09 02:13:09;;;;;;;61.05;22.77;;;14.30;99.90;;;;;;4998188;28;20051;-92
2022/06/09 02:16:49;;;;;;;67.15;23.05;;;14.30;99.90;;;;;;4998445;28;20045;-91
2022/06/09 02:19:28;;;;;;;56.03;22.10;;;14.30;99.90;;;;;;4993630;28;20057;-92
2022/06/09 02:22:11;;;;;;;62.10;23.00;;;14.20;99.90;;;;;;4997874;28;20041;-90
2022/06/09 02:24:43;;;;;;;64.82;23.35;;;14.20;99.90;;;;;;4997506;28;20057;-92
2022/06/09 02:27:23;;;;;;;58.63;23.00;;;14.20;99.90;;;;;;4996539;28;20092;-92
2022/06/09 02:30:18;;;;;;;54.70;21.90;;;14.20;99.90;;;;;;5016874;28;20055;-92
2022/06/09 02:33:13;;;;;;;53.47;22.00;;;14.10;99.90;;;;;;4997800;28;20049;-92
2022/06/09 02:36:20;;;;;;;52.90;20.70;;;14.00;99.90;;;;;;4986553;28;20053;-91
2022/06/09 02:43:17;;;;;;;;;;;;;;;;;;;;;
2022/06/09 02:46:20;;;;;;;53.95;21.38;;;14.00;99.90;;;;;;5013766;28;20128;-92
2022/06/09 02:49:34;;;;;;;56.45;22.40;;;13.90;99.90;;;;;;4978058;28;20058;-91
2022/06/09 02:52:18;;;;;;;58.28;21.17;;;14.00;99.90;;;;;;4966744;28;20049;-92
2022/06/09 02:55:13;;;;;;;50.42;20.92;;;14.00;99.90;;;;;;4998157;28;20050;-92
2022/06/09 02:58:12;;;;;;;56.83;21.88;;;14.00;99.90;;;;;;5012937;28;20551;-91
2022/06/09 03:01:11;;;;;;;52.42;20.48;;;14.00;99.90;;;;;;4970683;28;20515;-92
2022/06/09 03:04:49;;;;;;;;;;;;;;;;;;;;;
2022/06/09 03:07:45;;;;;;;55.22;21.90;;;14.00;99.90;;;;;;4974221;28;20060;-91
2022/06/09 03:10:35;;;;;;;49.97;20.23;;;14.00;99.90;;;;;;5014522;28;20057;-92
2022/06/09 03:13:12;;;;;;;48.33;20.88;;;14.00;99.90;;;;;;4997687;28;20053;-90
2022/06/09 03:16:00;;;;;;;56.42;20.65;;;14.10;99.90;;;;;;4998597;28;20144;-92
2022/06/09 03:18:26;;;;;;;;;;;14.00;99.90;;;;;;4996863;28;20068;-92
2022/06/09 03:22:01;;;;;;;48.75;21.10;;;14.00;99.90;;;;;;4996314;28;19925;-92
2022/06/09 03:24:17;;;;;;;54.75;21.77;;;14.10;99.90;;;;;;5006073;28;20052;-91
2022/06/09 03:27:15;;;;;;;49.42;21.90;;;14.30;99.90;;;;;;4997117;28;20060;-91
2022/06/09 03:30:02;;;;;;;55.85;21.88;;;14.50;99.90;;;;;;4965209;28;20559;-91
2022/06/09 03:36:06;;;;;;;57.95;22.00;;;13.90;99.90;;;;;;4985822;28;20071;-91
2022/06/09 03:39:08;;;;;;;47.45;21.45;;;14.00;99.90;;;;;;5014758;28;20060;-92
2022/06/09 03:42:09;;;;;;;55.58;23.13;;;14.00;99.90;;;;;;5015721;28;20053;-92
2022/06/09 03:44:54;;;;;;;57.08;21.60;;;14.00;99.90;;;;;;4946666;28;20053;-91
2022/06/09 03:47:44;;;;;;;56.70;22.75;;;14.00;99.90;;;;;;5014661;28;20060;-92
2022/06/09 03:51:19;;;;;;;58.92;24.83;;;14.00;99.90;;;;;;5013689;28;20054;-92
2022/06/09 03:54:03;;;;;;;48.20;21.60;;;14.00;99.90;;;;;;4954155;28;20131;-91
2022/06/09 03:56:56;;;;;;;55.47;24.63;;;14.10;99.90;;;;;;5015228;28;20144;-91
2022/06/09 04:02:32;;;;;;;64.95;25.27;;;14.00;99.90;;;;;;4992390;28;20060;-91
2022/06/09 04:06:07;;;;;;;60.30;27.03;;;14.00;99.90;;;;;;5015086;28;20091;-91
2022/06/09 04:11:56;;;;;;;60.35;24.95;;;14.10;99.90;;;;;;4985343;28;20049;-91
2022/06/09 04:14:31;;;;;;;65.80;26.27;;;14.10;99.90;;;;;;5000508;28;20049;-91
2022/06/09 04:17:11;;;;;;;60.47;27.00;;;14.40;99.90;;;;;;4998409;28;20042;-91
2022/06/09 04:19:54;;;;;;;52.22;25.20;;;14.10;99.90;;;;;;5001290;28;20049;-92
2022/06/09 04:22:38;;;;;;;59.33;26.55;;;14.10;99.90;;;;;;5000155;28;20046;-92
2022/06/09 04:25:41;;;;;;;59.60;26.27;;;14.20;99.90;;;;;;5017685;28;20542;-91
2022/06/09 04:28:37;;;;;;;63.47;26.30;;;14.30;99.90;;;;;;4995779;28;20053;-91
2022/06/09 04:31:38;;;;;;;60.08;24.63;;;14.40;99.90;;;;;;4998523;28;20065;-92
2022/06/09 04:34:08;;;;;;;46.47;23.85;;;14.30;99.90;;;;;;4971641;28;20053;-91
2022/06/09 04:39:56;;;;;;;59.22;24.65;;;14.40;99.90;;;;;;5015271;28;20080;-92
2022/06/09 04:43:05;;;;;;;50.60;23.50;;;14.50;99.90;;;;;;4961479;28;20057;-92
2022/06/09 04:45:58;;;;;;;45.78;24.15;;;14.50;99.90;;;;;;4979650;28;20064;-91
2022/06/09 04:48:48;;;;;;;54.88;24.75;;;14.40;99.90;;;;;;4951707;28;20050;-91
2022/06/09 04:51:19;;;;;;;42.17;24.42;;;14.60;99.90;;;;;;5012032;28;20147;-91
2022/06/09 04:53:51;;;;;;;52.72;25.73;;;14.60;99.90;;;;;;5012803;28;20653;-91
2022/06/09 04:56:52;;;;;;;48.58;25.10;;;14.50;99.90;;;;;;5011996;28;20405;-92
2022/06/09 04:59:45;;;;;;;45.65;24.88;;;14.40;99.90;;;;;;4924617;28;20514;-91
2022/06/09 05:03:01;;;;;;;;;;;;;;;;;;;;;
2022/06/09 05:06:04;;;;;;;45.38;23.70;;;14.60;99.90;;;;;;5011264;28;20544;-91
2022/06/09 05:08:56;;;;;;;47.58;24.17;;;14.60;99.90;;;;;;4976816;28;20502;-90
2022/06/09 05:17:48;;;;;;;39.65;22.80;;;14.60;99.90;;;;;;5679423;22;18699030;-91
2022/06/09 05:23:57;;;;;;;40.03;24.50;;;14.60;99.90;;;;;;5072943;28;20048;-92
2022/06/09 05:27:05;;;;;;;42.45;25.77;;;14.80;99.90;;;;;;5057420;28;20060;-91
2022/06/09 05:50:16;;;;;;;32.38;19.50;;;15.10;99.90;;;;;;4911869;28;20075;-87
2022/06/09 05:53:31;;;;;;;;;;;;;;;;;;;;;
2022/06/09 06:04:21;;;;;;;34.97;24.30;;;15.50;99.90;;;;;;5090029;23;20064;-92
2022/06/09 06:07:04;;;;;;;36.15;24.25;;;15.60;99.90;;;;;;4978577;28;20084;-92
2022/06/09 06:10:40;;;;;;;47.88;27.17;;;15.70;99.90;;;;;;5046607;28;20072;-91
2022/06/09 06:13:15;;;;;;;31.08;21.55;;;15.70;99.90;;;;;;5020248;28;20045;-91
2022/06/09 06:16:04;;;;;;;37.47;23.23;;;15.70;99.90;;;;;;5018133;28;20476;-91
2022/06/09 06:19:22;;;;;;;40.13;25.48;;;15.80;99.90;;;;;;5020621;28;20045;-91
2022/06/09 06:32:22;;;;;;;34.05;22.92;;;15.80;99.90;;;;;;4995983;28;20091;-92
2022/06/09 06:35:21;;;;;;;;;;;;;;;;;;;;;
2022/06/09 06:38:07;;;;;;;26.08;21.33;;;15.90;99.90;;;;;;5034564;28;20411;-91
2022/06/09 06:41:08;;;;;;;24.65;18.70;;;16.00;99.90;;;;;;5021526;28;20045;-91
2022/06/09 06:43:56;;;;;;;25.40;18.98;;;16.00;99.90;;;;;;5011990;28;20056;-91
2022/06/09 06:46:35;;;;;;;24.20;18.92;;;16.00;99.90;;;;;;5033542;28;20055;-91
2022/06/09 06:49:51;;;;;;;26.27;19.08;;;16.20;99.90;;;;;;5032884;28;20477;-91
2022/06/09 06:52:34;;;;;;;24.92;18.77;;;16.30;99.90;;;;;;5012709;28;20540;-91
2022/06/09 06:56:02;;;;;;;24.17;18.73;;;16.40;99.90;;;;;;5048448;28;20073;-91
2022/06/09 06:58:46;;;;;;;23.25;18.17;;;16.40;99.90;;;;;;4980868;28;20092;-90
2022/06/09 07:01:11;;;;;;;21.70;16.33;;;16.50;99.90;;;;;;5038401;28;20047;-92
2022/06/09 07:04:06;;;;;;;21.10;16.92;;;16.70;99.90;;;;;;5015972;28;20109;-91
2022/06/09 07:06:57;;;;;;;16.13;13.80;;;16.70;99.90;;;;;;5021150;28;20485;-91
2022/06/09 07:09:26;;;;;;;17.83;12.55;;;16.80;99.90;;;;;;4944979;28;20053;-92
2022/06/09 07:12:01;;;;;;;14.95;11.90;;;16.90;99.90;;;;;;5010388;28;20088;-92
2022/06/09 07:14:46;;;;;;;16.88;12.27;;;17.00;99.90;;;;;;5013653;28;20132;-91
2022/06/09 07:17:21;;;;;;;16.92;13.63;;;17.20;99.90;;;;;;5014284;28;20051;-92
2022/06/09 07:20:10;;;;;;;17.33;12.60;;;17.30;99.90;;;;;;5006999;28;20481;-92
2022/06/09 07:23:01;;;;;;;14.30;11.93;;;17.40;99.90;;;;;;5013968;28;20085;-92
2022/06/09 07:26:41;;;;;;;;;;;;;;;;;;;;;
2022/06/09 07:32:37;;;;;;;12.77;9.88;;;17.70;99.90;;;;;;5008820;28;20056;-91
2022/06/09 07:35:20;;;;;;;14.43;9.00;;;17.60;99.90;;;;;;5000916;28;20041;-92
2022/06/09 07:38:04;;;;;;;10.18;7.72;;;17.70;99.90;;;;;;5000900;28;20054;-92
2022/06/09 07:44:22;;;;;;;13.75;8.40;;;17.90;99.90;;;;;;5001436;28;20140;-91
2022/06/09 07:46:59;;;;;;;15.50;9.25;;;17.90;99.90;;;;;;4984131;28;20053;-92
2022/06/09 07:50:00;;;;;;;11.05;7.47;;;18.00;99.90;;;;;;5009277;28;20045;-91
2022/06/09 07:53:09;;;;;;;11.18;8.15;;;17.90;99.90;;;;;;5006980;28;20093;-90
2022/06/09 07:56:27;;;;;;;10.70;6.55;;;18.10;99.90;;;;;;5013991;28;20048;-92
2022/06/09 07:59:24;;;;;;;9.25;4.40;;;18.00;99.90;;;;;;4964780;28;20053;-91
2022/06/09 08:01:56;;;;;;;8.50;4.30;;;18.10;99.90;;;;;;5012242;28;20049;-91
2022/06/09 08:04:33;;;;;;;6.25;3.83;;;18.30;99.90;;;;;;5013748;28;20046;-91
2022/06/09 08:07:30;;;;;;;6.03;4.07;;;18.30;99.90;;;;;;4999657;28;20065;-90
2022/06/09 08:10:23;;;;;;;6.32;3.50;;;18.60;99.90;;;;;;4988825;28;20050;-91
2022/06/09 08:12:52;;;;;;;8.45;3.10;;;18.60;99.90;;;;;;4993358;28;20525;-91
2022/06/09 08:15:37;;;;;;;7.60;3.38;;;18.80;99.90;;;;;;4992633;28;20099;-91
2022/06/09 08:18:38;;;;;;;5.80;2.05;;;18.90;99.90;;;;;;4996301;28;20038;-91
2022/06/09 08:22:02;;;;;;;4.15;1.90;;;18.90;99.90;;;;;;4994024;28;21013;-91
2022/06/09 08:24:36;;;;;;;5.60;2.08;;;19.00;99.90;;;;;;4960223;28;20080;-91
2022/06/09 08:27:17;;;;;;;6.70;2.35;;;18.80;99.90;;;;;;4993474;28;20053;-91
2022/06/09 08:30:14;;;;;;;5.32;1.52;;;19.00;99.90;;;;;;4995273;28;20107;-91
2022/06/09 08:33:01;;;;;;;5.03;1.73;;;18.90;99.90;;;;;;5001863;28;20109;-91
2022/06/09 08:35:49;;;;;;;7.43;1.83;;;19.00;99.90;;;;;;4992094;28;20049;-91
2022/06/09 08:38:38;;;;;;;9.00;1.85;;;19.20;99.90;;;;;;5009313;28;20103;-91
2022/06/09 08:41:54;;;;;;;6.53;1.50;;;19.40;99.90;;;;;;5017052;28;20041;-92
2022/06/09 08:45:06;;;;;;;6.55;1.48;;;19.50;99.90;;;;;;4993138;28;20121;-91
2022/06/09 08:47:57;;;;;;;7.45;2.00;;;19.60;99.90;;;;;;4981259;28;20093;-91
2022/06/09 08:54:20;;;;;;;6.38;1.40;;;19.70;99.90;;;;;;4963312;28;20050;-91
2022/06/09 08:57:02;;;;;;;5.93;1.33;;;19.60;99.90;;;;;;4980034;28;20112;-91
2022/06/09 08:59:52;;;;;;;;;;;;;;;;;;;;;
2022/06/09 09:03:05;;;;;;;8.35;1.10;;;19.50;99.90;;;;;;5012766;28;20053;-91
2022/06/09 09:05:56;;;;;;;6.15;0.80;;;19.80;99.90;;;;;;4956564;28;20515;-91
2022/06/09 09:08:38;;;;;;;5.38;0.93;;;19.90;99.90;;;;;;5009875;28;20137;-91
2022/06/09 09:11:38;;;;;;;7.57;1.60;;;20.20;99.90;;;;;;4997487;28;20046;-91
2022/06/09 09:14:51;;;;;;;3.78;0.80;;;20.30;99.90;;;;;;4997704;28;20050;-91
2022/06/09 09:18:06;;;;;;;8.68;1.10;;;20.40;99.90;;;;;;4993558;28;20046;-90
2022/06/09 09:21:00;;;;;;;5.25;0.98;;;20.60;99.90;;;;;;4994918;28;20050;-91
2022/06/09 09:27:09;;;;;;;8.90;1.60;;;20.40;99.90;;;;;;4993486;28;20077;-91
2022/06/09 09:30:18;;;;;;;8.23;1.08;;;20.40;99.90;;;;;;4989090;28;20053;-90
2022/06/09 09:33:31;;;;;;;8.30;0.75;;;20.50;99.90;;;;;;5011329;28;20492;-91
2022/06/09 09:37:29;;;;;;;4.95;1.08;;;20.60;99.90;;;;;;4996863;28;20057;-91
2022/06/09 09:39:54;;;;;;;11.57;1.40;;;20.30;99.90;;;;;;4992039;28;20050;-91
2022/06/09 09:42:38;;;;;;;11.20;1.20;;;20.10;99.90;;;;;;4995108;28;20062;-91
2022/06/09 09:45:31;;;;;;;8.20;1.08;;;20.20;99.90;;;;;;4995344;28;20120;-90
2022/06/09 09:48:44;;;;;;;8.25;0.88;;;20.20;99.90;;;;;;4994651;28;20107;-90
2022/06/09 09:51:27;;;;;;;4.93;1.10;;;20.00;99.90;;;;;;4952007;28;20115;-91
2022/06/09 09:53:57;;;;;;;6.50;1.00;;;20.00;99.90;;;;;;4994898;28;20081;-91
2022/06/09 09:56:32;;;;;;;8.48;0.75;;;19.90;99.90;;;;;;5044445;23;20636;-90
2022/06/09 09:59:21;;;;;;;8.80;1.10;;;20.00;99.90;;;;;;5037649;28;20179;-90
2022/06/09 10:10:27;;;;;;;8.23;1.17;;;20.00;99.90;;;;;;5053970;28;20323;-90
2022/06/09 10:12:56;;;;;;;8.73;1.17;;;20.10;99.90;;;;;;5054109;28;20131;-90
2022/06/09 10:15:26;;;;;;;7.32;1.20;;;20.10;99.90;;;;;;5053260;28;20147;-89
2022/06/09 10:17:59;;;;;;;5.65;1.00;;;20.00;99.90;;;;;;5037651;28;20144;-90
2022/06/09 10:20:30;;;;;;;7.18;1.13;;;19.90;99.90;;;;;;5036143;28;20053;-90
2022/06/09 10:23:06;;;;;;;8.48;1.30;;;20.10;99.90;;;;;;5037103;28;20111;-90
2022/06/09 10:25:48;;;;;;;10.02;1.25;;;20.20;99.90;;;;;;5053965;28;20525;-90
2022/06/09 10:28:30;;;;;;;7.03;1.30;;;20.50;99.90;;;;;;5037060;28;20487;-91
2022/06/09 10:31:05;;;;;;;9.57;1.50;;;20.50;99.90;;;;;;5037074;28;20044;-90
2022/06/09 10:33:52;;;;;;;8.82;1.77;;;20.40;99.90;;;;;;5053822;28;20052;-90
2022/06/09 10:36:27;;;;;;;11.18;1.90;;;20.30;99.90;;;;;;5052293;28;20048;-89
2022/06/09 10:39:03;;;;;;;10.02;2.15;;;20.10;99.90;;;;;;5036904;28;20048;-89
2022/06/09 10:42:05;;;;;;;7.75;0.90;;;20.10;99.90;;;;;;5053011;28;20048;-90
2022/06/09 10:44:57;;;;;;;9.60;1.30;;;20.30;99.90;;;;;;5036627;28;20088;-90
2022/06/09 10:56:31;;;;;;;6.50;1.20;;;20.10;99.90;;;;;;5052581;28;20082;-89
2022/06/09 10:59:19;;;;;;;6.22;1.10;;;20.10;99.90;;;;;;5018921;28;20041;-90
2022/06/09 11:01:45;;;;;;;6.50;0.93;;;20.50;99.90;;;;;;5016886;28;20049;-90
2022/06/09 11:04:23;;;;;;;8.18;1.02;;;20.70;99.90;;;;;;5031734;28;20046;-90
2022/06/09 11:07:24;;;;;;;9.63;0.98;;;20.90;99.90;;;;;;5035136;28;20050;-90
2022/06/09 11:10:02;;;;;;;6.13;0.95;;;21.10;99.90;;;;;;5033717;28;20058;-88
2022/06/09 11:12:48;;;;;;;6.35;0.93;;;21.30;99.90;;;;;;5034691;28;20072;-89
2022/06/09 11:15:32;;;;;;;9.25;1.20;;;21.30;99.90;;;;;;5035396;28;20052;-84
2022/06/09 11:18:13;;;;;;;9.93;1.10;;;21.30;99.90;;;;;;5048271;28;20045;-83
2022/06/09 11:20:58;;;;;;;7.15;1.10;;;21.50;99.90;;;;;;5049547;28;20048;-82
2022/06/09 11:23:46;;;;;;;8.02;0.85;;;21.60;99.90;;;;;;5035206;28;20079;-90
2022/06/09 11:26:16;;;;;;;7.18;1.00;;;21.40;99.90;;;;;;5031780;28;20044;-90
2022/06/09 11:29:06;;;;;;;6.20;0.90;;;21.20;99.90;;;;;;5019029;28;20049;-89
2022/06/09 11:31:56;;;;;;;10.98;1.50;;;20.90;99.90;;;;;;5045444;28;20152;-90
2022/06/09 11:34:49;;;;;;;6.82;1.65;;;20.70;99.90;;;;;;5034936;28;20131;-90
2022/06/09 11:37:46;;;;;;;7.63;0.60;;;20.50;99.90;;;;;;5035994;28;20073;-90
2022/06/09 11:40:40;;;;;;;8.70;0.90;;;20.50;99.90;;;;;;5035873;28;20053;-90
2022/06/09 11:43:36;;;;;;;5.80;0.80;;;20.70;99.90;;;;;;5036457;28;20082;-90
2022/06/09 11:46:09;;;;;;;5.82;1.00;;;21.00;99.90;;;;;;5036159;28;20045;-90
2022/06/09 11:48:39;;;;;;;12.32;1.25;;;21.10;99.90;;;;;;5035294;28;20506;-90
2022/06/09 11:51:06;;;;;;;6.68;1.23;;;20.90;99.90;;;;;;5035541;28;20086;-90
2022/06/09 11:53:38;;;;;;;6.60;1.10;;;20.90;99.90;;;;;;5035084;28;20048;-90
2022/06/09 11:56:34;;;;;;;7.72;0.95;;;21.10;99.90;;;;;;5035794;28;20068;-91
2022/06/09 11:59:04;;;;;;;4.82;0.75;;;21.30;99.90;;;;;;5036048;28;20127;-90
2022/06/09 12:01:47;;;;;;;11.82;1.25;;;21.40;99.90;;;;;;5035561;28;20040;-89
2022/06/09 12:04:56;;;;;;;14.73;1.63;;;21.50;99.90;;;;;;5035706;28;20045;-89
2022/06/09 12:07:42;;;;;;;8.30;1.63;;;21.50;99.90;;;;;;5034890;28;20411;-90
2022/06/09 12:10:28;;;;;;;8.75;1.63;;;21.50;99.90;;;;;;5036173;28;20054;-92
2022/06/09 12:13:22;;;;;;;6.40;1.10;;;21.60;99.90;;;;;;5036145;28;20055;-90
2022/06/09 12:16:01;;;;;;;6.78;1.08;;;21.70;99.90;;;;;;5035158;28;20040;-91
2022/06/09 12:18:32;;;;;;;7.60;0.93;;;21.70;99.90;;;;;;5035191;28;20048;-90
2022/06/09 12:21:13;;;;;;;6.32;1.05;;;21.60;99.90;;;;;;5032005;28;20516;-89
2022/06/09 12:24:20;;;;;;;7.63;1.13;;;22.00;99.90;;;;;;5031799;28;20084;-90
2022/06/09 12:27:21;;;;;;;4.20;0.80;;;21.90;99.90;;;;;;5019777;28;20059;-90
2022/06/09 12:29:57;;;;;;;6.88;1.20;;;21.80;99.90;;;;;;5036314;28;20048;-89
2022/06/09 12:32:43;;;;;;;8.20;1.20;;;21.50;99.90;;;;;;5036011;28;20049;-90
2022/06/09 12:35:43;;;;;;;10.85;1.50;;;21.30;99.90;;;;;;5035537;28;20041;-90
2022/06/09 12:38:30;;;;;;;5.63;0.93;;;21.20;99.90;;;;;;5035635;28;20068;-89
2022/06/09 12:41:02;;;;;;;11.05;1.27;;;21.30;99.90;;;;;;5035673;28;20033;-90
2022/06/09 12:43:40;;;;;;;;;;;21.50;99.90;;;;;;5036228;28;20099;-89
2022/06/09 12:46:22;;;;;;;9.32;1.20;;;21.10;99.90;;;;;;5035441;28;19921;-90
2022/06/09 12:48:49;;;;;;;8.23;1.30;;;20.80;99.90;;;;;;5036067;28;20406;-89
2022/06/09 12:51:20;;;;;;;8.20;1.40;;;20.50;99.90;;;;;;5034562;28;20047;-89
2022/06/09 12:53:55;;;;;;;8.63;1.67;;;20.50;99.90;;;;;;5035713;28;20049;-89
2022/06/09 12:56:28;;;;;;;8.75;1.10;;;20.60;99.90;;;;;;5035353;28;20041;-89
2022/06/09 12:58:55;;;;;;;9.60;1.45;;;20.60;99.90;;;;;;5021504;28;20101;-89
2022/06/09 13:01:26;;;;;;;7.53;0.85;;;20.60;99.90;;;;;;5035807;28;20044;-89
2022/06/09 13:03:59;;;;;;;6.68;0.90;;;20.60;99.90;;;;;;5034824;28;20041;-90
2022/06/09 13:06:35;;;;;;;4.70;0.70;;;20.70;99.90;;;;;;5035242;28;20076;-90
2022/06/09 13:09:24;;;;;;;7.10;0.98;;;20.90;99.90;;;;;;5035018;28;20060;-90
2022/06/09 13:14:47;;;;;;;6.18;0.82;;;21.10;99.90;;;;;;5035146;28;20052;-90
2022/06/09 13:17:21;;;;;;;11.30;1.02;;;21.30;99.90;;;;;;5034991;28;20049;-90
2022/06/09 13:19:57;;;;;;;5.38;0.70;;;21.30;99.90;;;;;;5018399;28;20053;-90
2022/06/09 13:22:25;;;;;;;4.80;0.68;;;21.30;99.90;;;;;;5035072;28;20059;-91
2022/06/09 13:24:54;;;;;;;6.10;0.90;;;21.30;99.90;;;;;;5035032;28;20566;-90
2022/06/09 13:27:25;;;;;;;9.52;1.13;;;21.30;99.90;;;;;;5031463;28;20072;-91
2022/06/09 13:29:59;;;;;;;6.57;0.90;;;21.20;99.90;;;;;;5034903;28;20045;-90
2022/06/09 13:32:44;;;;;;;6.35;0.95;;;21.20;99.90;;;;;;5034570;28;20488;-90
2022/06/09 13:35:36;;;;;;;5.82;0.95;;;21.30;99.90;;;;;;5016857;28;20034;-82
2022/06/09 13:38:18;;;;;;;7.63;1.15;;;21.30;99.90;;;;;;5050396;28;20040;-82
2022/06/09 13:40:49;;;;;;;4.32;0.82;;;21.20;99.90;;;;;;5049652;28;20050;-81
2022/06/09 13:43:25;;;;;;;7.20;0.65;;;21.20;99.90;;;;;;5051521;28;20368;-81
2022/06/09 13:46:01;;;;;;;6.05;0.95;;;21.00;99.90;;;;;;5034640;28;20518;-81
2022/06/09 13:48:42;;;;;;;4.00;0.70;;;20.80;99.90;;;;;;5046132;28;20041;-81
2022/06/09 13:51:20;;;;;;;6.82;1.02;;;20.90;99.90;;;;;;5050205;28;20109;-82
2022/06/09 13:53:50;;;;;;;5.35;0.60;;;21.00;99.90;;;;;;5051734;28;20079;-81
2022/06/09 13:56:19;;;;;;;4.28;0.80;;;21.00;99.90;;;;;;5035281;28;20124;-82
2022/06/09 13:58:45;;;;;;;4.60;0.90;;;20.90;99.90;;;;;;5035598;28;20056;-81
2022/06/09 14:01:11;;;;;;;5.95;1.02;;;21.00;99.90;;;;;;5050099;28;20115;-81
2022/06/09 14:03:43;;;;;;;7.80;1.08;;;20.90;99.90;;;;;;5035748;28;20052;-81
2022/06/09 14:06:18;;;;;;;6.03;0.90;;;21.00;99.90;;;;;;5036694;28;20131;-82
2022/06/09 14:08:46;;;;;;;7.25;1.10;;;21.00;99.90;;;;;;5061575;28;20040;-81
2022/06/09 14:11:17;;;;;;;7.00;1.20;;;20.80;99.90;;;;;;5050923;28;20051;-82
2022/06/09 14:13:43;;;;;;;5.88;1.10;;;20.60;99.90;;;;;;5052662;28;20048;-81
2022/06/09 14:16:14;;;;;;;7.28;0.95;;;20.50;99.90;;;;;;5049188;28;20049;-81
2022/06/09 14:18:39;;;;;;;5.82;1.02;;;20.30;99.90;;;;;;5049946;28;20041;-82
2022/06/09 14:21:05;;;;;;;5.20;0.55;;;20.30;99.90;;;;;;5049956;28;20043;-81
2022/06/09 14:23:34;;;;;;;12.38;0.90;;;20.30;99.90;;;;;;5035142;28;20080;-81
2022/06/09 14:26:07;;;;;;;17.65;0.95;;;20.30;99.90;;;;;;5052266;28;20400;-86
2022/06/09 14:28:35;;;;;;;10.40;1.42;;;20.30;99.90;;;;;;5040552;28;20056;-88
2022/06/09 14:31:01;;;;;;;6.10;1.10;;;20.30;99.90;;;;;;5036916;28;20481;-89
2022/06/09 14:33:28;;;;;;;5.30;0.85;;;20.40;99.90;;;;;;5053254;28;20040;-88
2022/06/09 14:35:56;;;;;;;2.65;0.73;;;20.50;99.90;;;;;;5052531;28;20048;-88
2022/06/09 14:38:32;;;;;;;6.25;1.05;;;20.50;99.90;;;;;;5036621;28;20177;-90
2022/06/09 14:40:58;;;;;;;3.88;0.70;;;20.50;99.90;;;;;;5036544;28;20045;-89
2022/06/09 14:43:24;;;;;;;5.78;1.13;;;20.50;99.90;;;;;;5035803;28;20040;-89
2022/06/09 14:45:54;;;;;;;6.25;0.90;;;20.50;99.90;;;;;;5036655;28;20056;-89
2022/06/09 14:48:22;;;;;;;3.13;0.60;;;20.60;99.90;;;;;;5036032;28;20101;-89
2022/06/09 14:50:53;;;;;;;3.13;0.57;;;20.50;99.90;;;;;;5035427;28;20491;-89
2022/06/09 14:53:20;;;;;;;5.40;0.80;;;20.50;99.90;;;;;;5036755;28;20052;-89
2022/06/09 14:55:49;;;;;;;6.75;1.10;;;20.60;99.90;;;;;;5036683;28;20500;-89
2022/06/09 14:58:22;;;;;;;4.15;0.77;;;20.70;99.90;;;;;;5033462;28;20202;-88
2022/06/09 15:00:48;;;;;;;3.60;1.05;;;20.60;99.90;;;;;;5016764;28;20068;-90
2022/06/09 15:03:15;;;;;;;9.18;1.08;;;20.50;99.90;;;;;;5016175;28;20081;-89
2022/06/09 15:05:43;;;;;;;6.40;1.02;;;20.60;99.90;;;;;;5016353;28;20068;-90
2022/06/09 15:08:12;;;;;;;6.90;1.15;;;20.80;99.90;;;;;;5016913;28;20037;-90
2022/06/09 15:10:46;;;;;;;7.65;1.10;;;20.80;99.90;;;;;;5016670;28;20048;-89
2022/06/09 15:13:24;;;;;;;9.00;0.90;;;21.00;99.90;;;;;;5016281;28;20051;-89
2022/06/09 15:15:52;;;;;;;7.68;1.27;;;21.00;99.90;;;;;;5016359;28;20488;-90
2022/06/09 15:18:20;;;;;;;8.65;1.13;;;21.00;99.90;;;;;;5015654;28;20036;-89
2022/06/09 15:20:56;;;;;;;5.53;1.08;;;20.90;99.90;;;;;;5016268;28;20056;-89
2022/06/09 15:23:22;;;;;;;11.38;1.85;;;21.00;99.90;;;;;;5015916;28;20400;-89
2022/06/09 15:25:54;;;;;;;8.25;1.17;;;20.90;99.90;;;;;;5015648;28;20555;-91
2022/06/09 15:28:24;;;;;;;5.40;1.30;;;20.80;99.90;;;;;;5015859;28;20044;-90
2022/06/09 15:30:54;;;;;;;8.43;1.35;;;20.80;99.90;;;;;;5016660;28;20451;-89
2022/06/09 15:33:27;;;;;;;4.60;1.17;;;20.70;99.90;;;;;;5015250;28;20045;-88
2022/06/09 15:35:54;;;;;;;8.60;1.27;;;20.60;99.90;;;;;;5015082;28;20048;-89
2022/06/09 15:38:22;;;;;;;9.43;1.27;;;20.60;99.90;;;;;;5015920;28;20072;-90
2022/06/09 15:40:48;;;;;;;6.15;1.65;;;20.70;99.90;;;;;;5016487;28;20107;-89
2022/06/09 15:43:17;;;;;;;7.90;1.55;;;20.70;99.90;;;;;;5016063;28;20120;-88
2022/06/09 15:45:49;;;;;;;9.82;1.35;;;20.70;99.90;;;;;;5016179;28;20037;-90
2022/06/09 15:48:19;;;;;;;9.15;1.33;;;20.70;99.90;;;;;;5026896;28;20525;-89
2022/06/09 15:50:45;;;;;;;11.65;1.60;;;20.80;99.90;;;;;;5015231;28;20041;-88
2022/06/09 15:53:17;;;;;;;6.78;1.42;;;20.80;99.90;;;;;;5015736;28;20041;-89
2022/06/09 15:55:48;;;;;;;6.57;1.30;;;20.90;99.90;;;;;;5004557;28;20053;-89
2022/06/09 15:58:16;;;;;;;10.52;1.60;;;21.00;99.90;;;;;;4996302;28;20045;-88
2022/06/09 16:00:43;;;;;;;8.70;1.23;;;21.00;99.90;;;;;;5007038;28;20121;-81
2022/06/09 16:03:10;;;;;;;12.70;1.50;;;21.20;99.90;;;;;;5034248;28;20051;-81
2022/06/09 16:05:37;;;;;;;8.88;1.58;;;21.20;99.90;;;;;;5033330;28;20079;-81
2022/06/09 16:08:06;;;;;;;8.05;1.13;;;21.20;99.90;;;;;;5016706;28;20682;-81
2022/06/09 16:10:40;;;;;;;5.65;1.05;;;21.20;99.90;;;;;;5034668;28;20044;-81
2022/06/09 16:13:06;;;;;;;7.82;1.50;;;21.20;99.90;;;;;;5034278;28;20049;-81
2022/06/09 16:15:34;;;;;;;5.82;0.85;;;21.20;99.90;;;;;;5032995;28;20551;-82
2022/06/09 16:18:01;;;;;;;11.45;1.58;;;21.30;99.90;;;;;;5018038;28;20044;-81
2022/06/09 16:20:32;;;;;;;8.57;1.15;;;21.40;99.90;;;;;;5029603;28;20056;-81
2022/06/09 16:22:58;;;;;;;9.48;1.15;;;21.60;99.90;;;;;;5034352;28;20603;-81